createdAt,value
2019-02-02T00:01:26.908Z,71.40
2019-02-02T00:03:54.331Z,71.40
2019-02-02T00:06:21.708Z,71.40
2019-02-02T00:08:49.147Z,71.60
2019-02-02T00:11:16.478Z,71.50
2019-02-02T00:13:43.884Z,71.50
2019-02-02T00:16:11.142Z,71.60
2019-02-02T00:18:38.551Z,71.30
2019-02-02T00:21:05.987Z,71.30
2019-02-02T00:23:33.309Z,71.40
2019-02-02T00:26:00.705Z,71.50
2019-02-02T00:28:28.040Z,71.50
2019-02-02T00:30:55.382Z,71.70
2019-02-02T00:33:22.789Z,71.70
2019-02-02T00:35:50.120Z,71.70
2019-02-02T00:38:17.520Z,71.50
2019-02-02T00:40:44.920Z,71.80
2019-02-02T00:43:12.216Z,71.50
2019-02-02T00:45:39.541Z,71.50
2019-02-02T00:48:06.870Z,71.50
2019-02-02T00:50:34.477Z,71.70
2019-02-02T00:53:01.780Z,71.40
2019-02-02T00:55:29.107Z,71.30
2019-02-02T00:57:56.624Z,71.70
2019-02-02T01:00:24.443Z,71.70
2019-02-02T01:02:51.857Z,71.60
2019-02-02T01:05:19.598Z,71.60
2019-02-02T01:07:47.093Z,71.80
2019-02-02T01:10:26.079Z,71.80
2019-02-02T01:12:53.565Z,71.80
2019-02-02T01:15:21.092Z,71.80
2019-02-02T01:17:48.560Z,71.90
2019-02-02T01:20:15.964Z,71.90
2019-02-02T01:22:43.871Z,71.90
2019-02-02T01:25:11.463Z,71.90
2019-02-02T01:27:38.767Z,72.10
2019-02-02T01:30:08.414Z,72.40
2019-02-02T01:32:35.752Z,72.40
2019-02-02T01:35:05.166Z,71.70
2019-02-02T01:37:32.487Z,71.70
2019-02-02T01:39:59.901Z,71.50
2019-02-02T01:42:27.203Z,71.60
2019-02-02T01:44:54.618Z,71.70
2019-02-02T01:47:21.998Z,71.70
2019-02-02T01:49:49.388Z,71.50
2019-02-02T01:52:16.812Z,71.40
2019-02-02T01:54:44.089Z,71.50
2019-02-02T01:57:11.439Z,72.80
2019-02-02T01:59:38.741Z,72.50
2019-02-02T02:02:06.029Z,73.10
2019-02-02T02:04:33.299Z,72.40
2019-02-02T02:07:00.588Z,72.70
2019-02-02T02:09:27.985Z,73.30
2019-02-02T02:11:55.371Z,73.20
2019-02-02T02:14:22.663Z,72.70
2019-02-02T02:16:49.995Z,72.50
2019-02-02T02:19:17.504Z,72.10
2019-02-02T02:21:44.895Z,71.90
2019-02-02T02:24:12.195Z,71.80
2019-02-02T02:26:39.497Z,71.80
2019-02-02T02:29:07.201Z,71.60
2019-02-02T02:31:34.501Z,71.80
2019-02-02T02:34:01.980Z,71.70
2019-02-02T02:36:29.421Z,71.70
2019-02-02T02:38:57.121Z,71.90
2019-02-02T02:41:24.435Z,71.80
2019-02-02T02:43:52.010Z,71.90
2019-02-02T02:46:19.444Z,72.00
2019-02-02T02:48:46.828Z,71.70
2019-02-02T02:51:14.139Z,71.70
2019-02-02T02:53:41.514Z,72.10
2019-02-02T02:56:08.830Z,72.60
2019-02-02T02:58:41.661Z,72.20
2019-02-02T03:01:05.660Z,72.20
2019-02-02T03:03:32.969Z,72.60
2019-02-02T03:06:00.329Z,72.40
2019-02-02T03:08:27.711Z,72.40
2019-02-02T03:10:55.032Z,72.40
2019-02-02T03:13:22.315Z,72.60
2019-02-02T03:15:49.625Z,72.50
2019-02-02T03:18:16.981Z,72.40
2019-02-02T03:20:44.755Z,72.30
2019-02-02T03:23:12.089Z,72.20
2019-02-02T03:25:39.391Z,72.30
2019-02-02T03:28:06.788Z,72.20
2019-02-02T03:30:34.195Z,72.20
2019-02-02T03:33:01.509Z,72.30
2019-02-02T03:35:28.834Z,72.30
2019-02-02T03:37:56.238Z,72.20
2019-02-02T03:40:23.723Z,72.20
2019-02-02T03:42:51.582Z,72.40
2019-02-02T03:45:20.547Z,72.40
2019-02-02T03:47:48.768Z,72.50
2019-02-02T03:50:16.056Z,72.60
2019-02-02T03:52:43.490Z,72.50
2019-02-02T03:55:11.903Z,72.40
2019-02-02T03:57:39.278Z,72.40
2019-02-02T04:00:08.902Z,72.30
2019-02-02T04:02:36.341Z,72.50
2019-02-02T04:05:05.310Z,72.50
2019-02-02T04:07:32.729Z,72.50
2019-02-02T04:10:00.183Z,72.60
2019-02-02T04:12:27.955Z,72.70
2019-02-02T04:14:55.235Z,72.70
2019-02-02T04:17:22.892Z,72.60
2019-02-02T04:19:50.275Z,72.60
2019-02-02T04:22:17.567Z,72.60
2019-02-02T04:24:44.865Z,72.60
2019-02-02T04:27:12.191Z,72.60
2019-02-02T04:29:39.523Z,72.70
2019-02-02T04:32:06.927Z,72.90
2019-02-02T04:34:34.226Z,72.70
2019-02-02T04:37:01.607Z,72.90
2019-02-02T04:39:28.907Z,73.00
2019-02-02T04:41:56.223Z,73.40
2019-02-02T04:44:23.485Z,74.00
2019-02-02T04:46:50.791Z,73.80
2019-02-02T04:49:18.195Z,73.30
2019-02-02T04:51:45.587Z,72.90
2019-02-02T04:54:12.867Z,72.70
2019-02-02T04:56:40.180Z,72.60
2019-02-02T04:59:07.486Z,72.50
2019-02-02T05:01:35.091Z,72.70
2019-02-02T05:04:02.614Z,73.00
2019-02-02T05:06:29.980Z,72.80
2019-02-02T05:08:57.423Z,72.70
2019-02-02T05:11:24.804Z,72.80
2019-02-02T05:13:52.127Z,72.50
2019-02-02T05:16:19.444Z,72.40
2019-02-02T05:18:46.905Z,72.50
2019-02-02T05:21:14.246Z,72.60
2019-02-02T05:23:41.641Z,72.70
2019-02-02T05:26:08.956Z,72.60
2019-02-02T05:28:36.259Z,72.70
2019-02-02T05:31:03.661Z,72.70
2019-02-02T05:33:30.987Z,72.70
2019-02-02T05:35:58.253Z,72.70
2019-02-02T05:38:25.596Z,72.40
2019-02-02T05:40:53.156Z,72.50
2019-02-02T05:43:20.446Z,72.50
2019-02-02T05:45:47.770Z,72.50
2019-02-02T05:48:15.194Z,72.70
2019-02-02T05:50:42.500Z,73.20
2019-02-02T05:53:09.964Z,73.10
2019-02-02T05:55:37.256Z,73.00
2019-02-02T05:58:04.596Z,72.80
2019-02-02T06:00:44.099Z,72.80
2019-02-02T06:03:11.520Z,72.60
2019-02-02T06:05:38.819Z,72.70
2019-02-02T06:08:06.239Z,72.80
2019-02-02T06:10:33.932Z,72.70
2019-02-02T06:13:01.254Z,72.70
2019-02-02T06:15:29.186Z,72.70
2019-02-02T06:17:57.078Z,72.80
2019-02-02T06:20:24.408Z,72.80
2019-02-02T06:22:51.688Z,73.00
2019-02-02T06:25:18.998Z,73.20
2019-02-02T06:27:46.382Z,73.00
2019-02-02T06:30:15.622Z,73.00
2019-02-02T06:32:43.014Z,73.00
2019-02-02T06:35:11.538Z,72.90
2019-02-02T06:37:38.838Z,72.70
2019-02-02T06:40:07.300Z,72.80
2019-02-02T06:42:34.601Z,72.60
2019-02-02T06:45:02.061Z,72.90
2019-02-02T06:47:29.459Z,73.10
2019-02-02T06:49:56.784Z,73.20
2019-02-02T06:52:24.075Z,73.30
2019-02-02T06:54:51.711Z,73.20
2019-02-02T06:57:19.000Z,73.10
2019-02-02T06:59:46.303Z,73.20
2019-02-02T07:02:13.610Z,73.20
2019-02-02T07:04:40.916Z,73.20
2019-02-02T07:07:08.334Z,73.20
2019-02-02T07:09:35.600Z,73.70
2019-02-02T07:12:03.066Z,73.80
2019-02-02T07:14:30.412Z,74.00
2019-02-02T07:16:57.713Z,74.90
2019-02-02T07:19:25.142Z,75.90
2019-02-02T07:21:52.441Z,75.90
2019-02-02T07:24:19.961Z,76.00
2019-02-02T07:26:47.283Z,75.30
2019-02-02T07:29:14.712Z,74.70
2019-02-02T07:31:42.120Z,75.90
2019-02-02T07:34:09.833Z,75.70
2019-02-02T07:36:37.269Z,75.30
2019-02-02T07:39:06.998Z,74.70
2019-02-02T07:41:34.398Z,75.30
2019-02-02T07:44:01.774Z,75.10
2019-02-02T07:46:29.203Z,74.50
2019-02-02T07:48:56.636Z,74.50
2019-02-02T07:51:24.049Z,74.30
2019-02-02T07:53:51.386Z,74.40
2019-02-02T07:56:18.743Z,73.90
2019-02-02T07:58:46.190Z,74.10
2019-02-02T08:01:13.834Z,74.00
2019-02-02T08:03:41.240Z,73.50
2019-02-02T08:06:08.579Z,73.50
2019-02-02T08:08:35.887Z,73.40
2019-02-02T08:11:03.773Z,73.20
2019-02-02T08:13:31.237Z,73.30
2019-02-02T08:15:58.877Z,73.70
2019-02-02T08:18:26.204Z,73.30
2019-02-02T08:20:53.685Z,73.20
2019-02-02T08:23:21.045Z,73.30
2019-02-02T08:25:48.411Z,73.20
2019-02-02T08:28:15.823Z,73.20
2019-02-02T08:30:52.014Z,73.10
2019-02-02T08:33:12.365Z,73.10
2019-02-02T08:35:39.782Z,73.10
2019-02-02T08:38:07.174Z,73.30
2019-02-02T08:40:35.009Z,73.70
2019-02-02T08:43:02.406Z,74.50
2019-02-02T08:45:29.780Z,74.10
2019-02-02T08:47:57.108Z,74.60
2019-02-02T08:50:27.138Z,74.90
2019-02-02T08:52:54.559Z,74.60
2019-02-02T08:55:22.338Z,74.30
2019-02-02T08:57:50.058Z,74.50
2019-02-02T09:00:18.343Z,74.40
2019-02-02T09:02:45.747Z,73.70
2019-02-02T09:05:15.739Z,73.70
2019-02-02T09:07:43.182Z,73.50
2019-02-02T09:10:13.618Z,73.30
2019-02-02T09:12:40.919Z,73.40
2019-02-02T09:15:09.460Z,73.20
2019-02-02T09:17:36.777Z,74.30
2019-02-02T09:20:05.556Z,75.00
2019-02-02T09:22:33.051Z,74.90
2019-02-02T09:25:00.423Z,74.50
2019-02-02T09:27:28.145Z,74.80
2019-02-02T09:29:55.846Z,74.70
2019-02-02T09:32:23.182Z,74.60
2019-02-02T09:34:50.509Z,74.10
2019-02-02T09:37:17.917Z,73.70
2019-02-02T09:39:45.246Z,73.60
2019-02-02T09:42:12.592Z,73.00
2019-02-02T09:44:39.973Z,73.10
2019-02-02T09:47:07.757Z,72.80
2019-02-02T09:49:35.053Z,72.60
2019-02-02T09:52:02.408Z,73.00
2019-02-02T09:54:29.834Z,73.20
2019-02-02T09:56:57.274Z,73.00
2019-02-02T09:59:24.739Z,72.90
2019-02-02T10:01:52.186Z,73.60
2019-02-02T10:04:19.551Z,73.00
2019-02-02T10:06:47.048Z,73.50
2019-02-02T10:09:14.893Z,73.20
2019-02-02T10:11:42.441Z,73.50
2019-02-02T10:14:09.877Z,73.20
2019-02-02T10:16:37.322Z,72.70
2019-02-02T10:19:05.024Z,72.50
2019-02-02T10:21:32.421Z,72.70
2019-02-02T10:23:59.818Z,72.20
2019-02-02T10:26:27.170Z,72.60
2019-02-02T10:28:54.889Z,72.70
2019-02-02T10:31:22.353Z,72.30
2019-02-02T10:33:49.774Z,72.50
2019-02-02T10:36:20.005Z,72.80
2019-02-02T10:38:46.512Z,73.60
2019-02-02T10:41:14.305Z,73.40
2019-02-02T10:43:41.959Z,73.00
2019-02-02T10:46:10.783Z,73.20
2019-02-02T10:48:38.962Z,73.20
2019-02-02T10:51:06.345Z,73.00
2019-02-02T10:53:34.171Z,73.10
2019-02-02T10:56:01.491Z,73.60
2019-02-02T10:58:29.978Z,73.20
2019-02-02T11:00:57.504Z,73.40
2019-02-02T11:03:25.003Z,73.70
2019-02-02T11:05:52.461Z,73.20
2019-02-02T11:08:19.967Z,73.10
2019-02-02T11:10:47.628Z,73.10
2019-02-02T11:13:16.893Z,73.50
2019-02-02T11:15:44.693Z,73.40
2019-02-02T11:18:12.269Z,73.80
2019-02-02T11:20:39.713Z,73.40
2019-02-02T11:23:07.522Z,73.20
2019-02-02T11:25:35.037Z,73.80
2019-02-02T11:28:03.072Z,74.40
2019-02-02T11:30:30.652Z,76.30
2019-02-02T11:32:58.373Z,76.40
2019-02-02T11:35:25.828Z,76.40
2019-02-02T11:37:53.754Z,75.80
2019-02-02T11:40:24.708Z,75.30
2019-02-02T11:42:52.132Z,74.20
2019-02-02T11:45:19.517Z,73.90
2019-02-02T11:47:46.993Z,73.50
2019-02-02T11:50:15.218Z,72.90
2019-02-02T11:52:42.634Z,71.80
2019-02-02T11:55:10.958Z,71.90
2019-02-02T11:57:38.282Z,71.60
2019-02-02T12:00:16.427Z,71.80
2019-02-02T12:02:49.579Z,71.50
2019-02-02T12:05:13.998Z,71.30
2019-02-02T12:07:41.445Z,70.70
2019-02-02T12:10:10.393Z,71.70
2019-02-02T12:12:37.848Z,71.80
2019-02-02T12:15:07.642Z,71.70
2019-02-02T12:17:35.459Z,73.00
2019-02-02T12:20:04.197Z,72.50
2019-02-02T12:22:31.682Z,71.20
2019-02-02T12:25:01.710Z,70.90
2019-02-02T12:27:28.961Z,71.10
2019-02-02T12:29:57.964Z,71.20
2019-02-02T12:32:26.972Z,72.20
2019-02-02T12:34:54.675Z,70.90
2019-02-02T12:37:22.113Z,71.40
2019-02-02T12:39:49.576Z,70.60
2019-02-02T12:42:17.426Z,71.00
2019-02-02T12:44:44.891Z,71.20
2019-02-02T12:47:12.223Z,70.30
2019-02-02T12:49:39.604Z,70.50
2019-02-02T12:52:06.960Z,70.70
2019-02-02T12:54:34.769Z,71.00
2019-02-02T12:57:02.261Z,71.00
2019-02-02T12:59:29.725Z,70.40
2019-02-02T13:01:57.169Z,70.40
2019-02-02T13:04:24.735Z,69.60
2019-02-02T13:06:52.318Z,69.70
2019-02-02T13:09:19.856Z,71.00
2019-02-02T13:11:47.681Z,71.70
2019-02-02T13:14:15.511Z,70.90
2019-02-02T13:16:42.948Z,69.90
2019-02-02T13:19:10.364Z,68.90
2019-02-02T13:21:37.792Z,67.80
2019-02-02T13:24:05.279Z,66.80
2019-02-02T13:26:33.026Z,65.20
2019-02-02T13:29:00.410Z,64.10
2019-02-02T13:31:28.213Z,62.50
2019-02-02T13:33:55.658Z,61.00
2019-02-02T13:36:23.048Z,60.50
2019-02-02T13:38:50.488Z,60.00
2019-02-02T13:41:18.732Z,60.00
2019-02-02T13:43:46.059Z,60.00
2019-02-02T13:46:13.516Z,60.00
2019-02-02T13:48:40.938Z,60.70
2019-02-02T13:51:08.389Z,61.40
2019-02-02T13:53:35.811Z,62.00
2019-02-02T13:56:03.527Z,63.00
2019-02-02T13:58:30.974Z,62.80
2019-02-02T14:00:58.352Z,61.60
2019-02-02T14:03:25.841Z,56.80
2019-02-02T14:05:53.308Z,53.20
2019-02-02T14:08:20.654Z,49.80
2019-02-02T14:10:48.345Z,48.30
2019-02-02T14:13:15.733Z,47.70
2019-02-02T14:15:43.068Z,47.90
2019-02-02T14:18:10.585Z,46.80
2019-02-02T14:20:37.989Z,46.00
2019-02-02T14:23:05.456Z,45.80
2019-02-02T14:25:32.940Z,46.20
2019-02-02T14:28:00.347Z,46.80
2019-02-02T14:30:27.870Z,46.40
2019-02-02T14:32:55.491Z,46.30
2019-02-02T14:35:24.520Z,45.90
2019-02-02T14:37:51.858Z,46.00
2019-02-02T14:40:19.565Z,47.60
2019-02-02T14:42:47.011Z,50.30
2019-02-02T14:45:16.342Z,53.00
2019-02-02T14:47:43.798Z,54.30
2019-02-02T14:50:14.201Z,56.30
2019-02-02T14:52:42.757Z,57.90
2019-02-02T14:55:12.055Z,59.40
2019-02-02T14:57:39.824Z,60.00
2019-02-02T15:00:10.931Z,61.10
2019-02-02T15:02:38.533Z,61.90
2019-02-02T15:05:08.331Z,62.50
2019-02-02T15:07:36.486Z,63.70
2019-02-02T15:10:04.271Z,64.10
2019-02-02T15:12:33.628Z,64.60
2019-02-02T15:15:01.071Z,65.00
2019-02-02T15:17:28.952Z,64.90
2019-02-02T15:19:56.363Z,64.10
2019-02-02T15:22:23.798Z,63.90
2019-02-02T15:24:51.257Z,63.40
2019-02-02T15:27:18.681Z,63.80
2019-02-02T15:29:46.093Z,64.40
2019-02-02T15:32:13.515Z,65.00
2019-02-02T15:34:40.956Z,65.60
2019-02-02T15:37:08.488Z,66.10
2019-02-02T15:39:35.929Z,66.90
2019-02-02T15:42:03.407Z,67.10
2019-02-02T15:44:31.143Z,67.40
2019-02-02T15:46:58.601Z,67.90
2019-02-02T15:49:26.035Z,68.10
2019-02-02T15:51:53.483Z,68.30
2019-02-02T15:54:20.790Z,68.30
2019-02-02T15:56:48.124Z,68.50
2019-02-02T15:59:15.454Z,68.50
2019-02-02T16:01:42.939Z,68.70
2019-02-02T16:04:10.487Z,69.00
2019-02-02T16:06:37.992Z,69.00
2019-02-02T16:09:08.192Z,69.30
2019-02-02T16:11:35.689Z,69.50
2019-02-02T16:14:03.303Z,69.60
2019-02-02T16:16:30.985Z,69.60
2019-02-02T16:18:58.332Z,69.70
2019-02-02T16:21:26.076Z,69.60
2019-02-02T16:23:53.448Z,69.60
2019-02-02T16:26:20.821Z,69.80
2019-02-02T16:28:48.173Z,70.00
2019-02-02T16:31:15.546Z,69.90
2019-02-02T16:33:43.023Z,69.80
2019-02-02T16:36:10.494Z,69.80
2019-02-02T16:38:38.282Z,70.00
2019-02-02T16:41:05.665Z,70.10
2019-02-02T16:43:33.008Z,70.00
2019-02-02T16:46:00.328Z,70.40
2019-02-02T16:48:27.783Z,70.30
2019-02-02T16:50:56.816Z,69.90
2019-02-02T16:53:24.461Z,70.50
2019-02-02T16:55:51.890Z,70.60
2019-02-02T16:58:19.247Z,70.20
2019-02-02T17:00:46.690Z,70.00
2019-02-02T17:03:14.146Z,70.50
2019-02-02T17:05:41.610Z,70.60
2019-02-02T17:08:09.028Z,70.70
2019-02-02T17:10:36.914Z,70.70
2019-02-02T17:13:05.361Z,70.30
2019-02-02T17:15:33.769Z,70.60
2019-02-02T17:18:01.236Z,70.80
2019-02-02T17:20:31.418Z,71.00
2019-02-02T17:22:58.988Z,70.90
2019-02-02T17:25:26.362Z,70.60
2019-02-02T17:27:53.821Z,70.60
2019-02-02T17:30:21.921Z,70.40
2019-02-02T17:32:50.833Z,70.60
2019-02-02T17:35:21.222Z,70.60
2019-02-02T17:37:48.676Z,71.00
2019-02-02T17:40:18.388Z,71.00
2019-02-02T17:42:45.979Z,71.10
2019-02-02T17:45:14.865Z,71.30
2019-02-02T17:47:42.275Z,71.50
2019-02-02T17:50:14.528Z,71.40
2019-02-02T17:52:42.003Z,71.50
2019-02-02T17:55:09.548Z,71.70
2019-02-02T17:57:37.298Z,71.80
2019-02-02T18:00:07.644Z,71.90
2019-02-02T18:02:35.174Z,72.00
2019-02-02T18:05:03.266Z,72.10
2019-02-02T18:07:30.721Z,72.00
2019-02-02T18:09:58.127Z,72.00
2019-02-02T18:12:25.555Z,71.70
2019-02-02T18:14:53.046Z,71.80
2019-02-02T18:17:20.502Z,71.60
2019-02-02T18:19:47.966Z,71.60
2019-02-02T18:22:17.849Z,71.60
2019-02-02T18:24:45.285Z,71.90
2019-02-02T18:27:13.579Z,71.80
2019-02-02T18:29:41.067Z,71.70
2019-02-02T18:32:13.358Z,71.80
2019-02-02T18:34:38.095Z,71.80
2019-02-02T18:37:05.558Z,71.80
2019-02-02T18:39:32.956Z,71.50
2019-02-02T18:42:00.420Z,71.40
2019-02-02T18:44:27.778Z,71.30
2019-02-02T18:46:55.175Z,71.00
2019-02-02T18:49:22.978Z,70.90
2019-02-02T18:51:50.734Z,71.00
2019-02-02T18:54:18.256Z,71.20
2019-02-02T18:56:46.019Z,71.30
2019-02-02T18:59:13.801Z,71.30
2019-02-02T19:01:41.964Z,71.50
2019-02-02T19:04:09.624Z,71.60
2019-02-02T19:06:37.035Z,71.70
2019-02-02T19:09:06.748Z,71.80
2019-02-02T19:11:34.151Z,71.80
2019-02-02T19:14:01.625Z,71.80
2019-02-02T19:16:29.206Z,71.80
2019-02-02T19:18:57.130Z,71.60
2019-02-02T19:21:24.582Z,71.60
2019-02-02T19:23:52.691Z,71.70
2019-02-02T19:26:20.132Z,71.80
2019-02-02T19:28:47.698Z,71.90
2019-02-02T19:31:15.218Z,72.10
2019-02-02T19:33:42.709Z,72.00
2019-02-02T19:36:10.175Z,72.10
2019-02-02T19:38:37.673Z,72.20
2019-02-02T19:41:05.120Z,72.40
2019-02-02T19:43:32.495Z,72.40
2019-02-02T19:45:59.997Z,72.60
2019-02-02T19:48:27.507Z,72.50
2019-02-02T19:50:55.078Z,72.50
2019-02-02T19:53:22.583Z,72.50
2019-02-02T19:55:50.042Z,72.50
2019-02-02T19:58:17.553Z,72.50
2019-02-02T20:00:45.102Z,72.60
2019-02-02T20:03:12.665Z,72.60
2019-02-02T20:05:40.266Z,72.70
2019-02-02T20:08:07.753Z,72.80
2019-02-02T20:10:35.208Z,72.70
2019-02-02T20:13:02.694Z,72.60
2019-02-02T20:15:30.267Z,72.80
2019-02-02T20:18:08.974Z,72.70
2019-02-02T20:20:27.958Z,72.90
2019-02-02T20:22:55.644Z,72.90
2019-02-02T20:25:23.231Z,72.80
2019-02-02T20:27:50.716Z,72.80
2019-02-02T20:30:20.877Z,72.70
2019-02-02T20:32:48.347Z,72.70
2019-02-02T20:35:15.850Z,72.80
2019-02-02T20:37:43.360Z,72.80
2019-02-02T20:40:13.556Z,72.90
2019-02-02T20:42:41.091Z,72.90
2019-02-02T20:45:10.920Z,72.90
2019-02-02T20:47:38.409Z,72.80
2019-02-02T20:50:09.259Z,72.80
2019-02-02T20:52:46.947Z,72.90
2019-02-02T20:55:08.427Z,72.90
2019-02-02T20:57:35.938Z,73.00
2019-02-02T21:00:05.244Z,72.90
2019-02-02T21:02:32.712Z,72.90
2019-02-02T21:05:00.336Z,73.00
2019-02-02T21:07:28.112Z,72.80
2019-02-02T21:09:55.743Z,72.90
2019-02-02T21:12:23.245Z,72.80
2019-02-02T21:14:51.201Z,72.90
2019-02-02T21:17:19.024Z,72.90
2019-02-02T21:19:46.619Z,72.90
2019-02-02T21:22:14.101Z,72.90
2019-02-02T21:24:41.556Z,73.00
2019-02-02T21:27:09.431Z,73.10
2019-02-02T21:29:37.820Z,73.00
2019-02-02T21:32:05.335Z,73.00
2019-02-02T21:34:32.825Z,73.00
2019-02-02T21:37:00.307Z,73.00
2019-02-02T21:39:28.089Z,73.00
2019-02-02T21:41:55.693Z,73.10
2019-02-02T21:44:23.503Z,73.00
2019-02-02T21:46:51.001Z,73.00
2019-02-02T21:49:18.694Z,73.00
2019-02-02T21:51:46.183Z,73.10
2019-02-02T21:54:13.712Z,73.00
2019-02-02T21:56:41.431Z,73.00
2019-02-02T21:59:08.882Z,73.20
2019-02-02T22:01:36.367Z,73.20
2019-02-02T22:04:04.521Z,73.10
2019-02-02T22:06:44.648Z,73.20
2019-02-02T22:09:12.171Z,73.30
2019-02-02T22:11:39.633Z,73.10
2019-02-02T22:14:07.184Z,73.20
2019-02-02T22:16:34.637Z,73.00
2019-02-02T22:19:02.106Z,72.90
2019-02-02T22:21:29.558Z,72.90
2019-02-02T22:23:57.362Z,72.80
2019-02-02T22:26:24.793Z,72.90
2019-02-02T22:28:52.335Z,73.00
2019-02-02T22:31:19.806Z,72.90
2019-02-02T22:33:47.240Z,73.10
2019-02-02T22:36:14.700Z,73.00
2019-02-02T22:38:43.934Z,73.00
2019-02-02T22:41:11.364Z,73.10
2019-02-02T22:43:39.133Z,73.10
2019-02-02T22:46:06.580Z,73.10
2019-02-02T22:48:33.986Z,73.10
2019-02-02T22:51:01.419Z,73.10
2019-02-02T22:53:28.873Z,73.00
2019-02-02T22:55:56.350Z,72.90
2019-02-02T22:58:24.606Z,72.80
2019-02-02T23:01:29.975Z,72.80
2019-02-02T23:04:42.468Z,72.70
2019-02-02T23:07:43.132Z,72.70
2019-02-02T23:10:49.218Z,72.80
2019-02-02T23:14:10.693Z,72.80
2019-02-02T23:16:38.127Z,72.90
2019-02-02T23:19:05.730Z,73.00
2019-02-02T23:21:33.155Z,72.90
2019-02-02T23:24:00.622Z,72.90
2019-02-02T23:26:28.069Z,72.90
2019-02-02T23:28:55.520Z,72.80
2019-02-02T23:31:23.488Z,72.80
2019-02-02T23:33:50.901Z,72.80
2019-02-02T23:36:18.348Z,72.80
2019-02-02T23:38:45.812Z,72.90
2019-02-02T23:41:13.320Z,72.80
2019-02-02T23:43:40.837Z,72.80
2019-02-02T23:46:08.553Z,72.90
2019-02-02T23:48:36.375Z,72.90
2019-02-02T23:51:04.257Z,72.70
2019-02-02T23:53:31.708Z,72.70
2019-02-02T23:55:59.116Z,72.60
2019-02-02T23:58:26.553Z,72.60
